sensor_id;sensor_type;location;lat;lon;timestamp;pressure;altitude;pressure_sealevel;temperature;humidity
66668;BME280;57205;51.438;-2.006;2023-02-28T00:02:24;102661.00;;;1.39;100.00
66668;BME280;57205;51.438;-2.006;2023-02-28T00:04:49;102661.13;;;1.38;100.00
66668;BME280;57205;51.438;-2.006;2023-02-28T00:07:18;102662.28;;;1.35;100.00
66668;BME280;57205;51.438;-2.006;2023-02-28T00:09:43;102668.00;;;1.31;100.00
66668;BME280;57205;51.438;-2.006;2023-02-28T00:12:08;102675.53;;;1.26;100.00
66668;BME280;57205;51.438;-2.006;2023-02-28T00:14:35;102679.91;;;1.17;100.00
66668;BME280;57205;51.438;-2.006;2023-02-28T00:17:01;102684.59;;;1.06;100.00
66668;BME280;57205;51.438;-2.006;2023-02-28T00:19:26;102681.06;;;0.97;100.00
66668;BME280;57205;51.438;-2.006;2023-02-28T00:21:51;102683.75;;;0.87;100.00
66668;BME280;57205;51.438;-2.006;2023-02-28T00:24:16;102685.34;;;0.80;100.00
66668;BME280;57205;51.438;-2.006;2023-02-28T00:26:42;102696.34;;;0.76;100.00
66668;BME280;57205;51.438;-2.006;2023-02-28T00:29:07;102691.13;;;0.66;100.00
66668;BME280;57205;51.438;-2.006;2023-02-28T00:31:32;102692.56;;;0.61;100.00
66668;BME280;57205;51.438;-2.006;2023-02-28T00:33:58;102691.50;;;0.54;100.00
66668;BME280;57205;51.438;-2.006;2023-02-28T00:36:23;102697.19;;;0.49;100.00
66668;BME280;57205;51.438;-2.006;2023-02-28T00:38:48;102693.56;;;0.50;100.00
66668;BME280;57205;51.438;-2.006;2023-02-28T00:41:14;102692.25;;;0.46;100.00
66668;BME280;57205;51.438;-2.006;2023-02-28T00:43:39;102688.94;;;0.44;100.00
66668;BME280;57205;51.438;-2.006;2023-02-28T00:46:05;102694.19;;;0.44;100.00
66668;BME280;57205;51.438;-2.006;2023-02-28T00:48:30;102691.03;;;0.41;100.00
66668;BME280;57205;51.438;-2.006;2023-02-28T00:50:56;102681.22;;;0.33;100.00
66668;BME280;57205;51.438;-2.006;2023-02-28T00:53:21;102694.81;;;0.29;100.00
66668;BME280;57205;51.438;-2.006;2023-02-28T00:55:47;102694.28;;;0.25;100.00
66668;BME280;57205;51.438;-2.006;2023-02-28T00:58:13;102698.03;;;0.23;100.00
66668;BME280;57205;51.438;-2.006;2023-02-28T01:00:38;102702.06;;;0.17;100.00
66668;BME280;57205;51.438;-2.006;2023-02-28T01:03:04;102706.66;;;0.15;100.00
66668;BME280;57205;51.438;-2.006;2023-02-28T01:05:29;102708.59;;;0.13;100.00
66668;BME280;57205;51.438;-2.006;2023-02-28T01:07:54;102705.56;;;0.08;100.00
66668;BME280;57205;51.438;-2.006;2023-02-28T01:10:19;102712.25;;;0.03;100.00
66668;BME280;57205;51.438;-2.006;2023-02-28T01:12:45;102705.06;;;-0.05;100.00
66668;BME280;57205;51.438;-2.006;2023-02-28T01:15:11;102708.25;;;-0.11;100.00
66668;BME280;57205;51.438;-2.006;2023-02-28T01:17:36;102696.50;;;-0.17;100.00
66668;BME280;57205;51.438;-2.006;2023-02-28T01:20:01;102699.28;;;-0.18;100.00
66668;BME280;57205;51.438;-2.006;2023-02-28T01:22:27;102711.75;;;-0.20;100.00
66668;BME280;57205;51.438;-2.006;2023-02-28T01:24:52;102704.47;;;-0.26;100.00
66668;BME280;57205;51.438;-2.006;2023-02-28T01:27:17;102704.03;;;-0.31;100.00
66668;BME280;57205;51.438;-2.006;2023-02-28T01:29:43;102706.13;;;-0.35;100.00
66668;BME280;57205;51.438;-2.006;2023-02-28T01:32:09;102706.41;;;-0.38;100.00
66668;BME280;57205;51.438;-2.006;2023-02-28T01:34:34;102709.19;;;-0.39;100.00
66668;BME280;57205;51.438;-2.006;2023-02-28T01:36:59;102702.25;;;-0.40;100.00
66668;BME280;57205;51.438;-2.006;2023-02-28T01:39:25;102697.84;;;-0.40;100.00
66668;BME280;57205;51.438;-2.006;2023-02-28T01:41:50;102699.47;;;-0.39;100.00
66668;BME280;57205;51.438;-2.006;2023-02-28T01:47:17;102699.78;;;-0.42;100.00
66668;BME280;57205;51.438;-2.006;2023-02-28T01:49:42;102695.91;;;-0.47;100.00
66668;BME280;57205;51.438;-2.006;2023-02-28T01:52:07;102694.69;;;-0.53;100.00
66668;BME280;57205;51.438;-2.006;2023-02-28T01:54:34;102697.72;;;-0.57;100.00
66668;BME280;57205;51.438;-2.006;2023-02-28T01:57:10;102700.88;;;-0.54;100.00
66668;BME280;57205;51.438;-2.006;2023-02-28T01:59:48;102706.28;;;-0.55;100.00
66668;BME280;57205;51.438;-2.006;2023-02-28T02:02:16;102705.75;;;-0.59;100.00
66668;BME280;57205;51.438;-2.006;2023-02-28T02:04:53;102714.47;;;-0.58;100.00
66668;BME280;57205;51.438;-2.006;2023-02-28T02:07:19;102704.25;;;-0.61;100.00
66668;BME280;57205;51.438;-2.006;2023-02-28T02:09:45;102694.28;;;-0.67;100.00
66668;BME280;57205;51.438;-2.006;2023-02-28T02:15:01;102695.00;;;-0.75;100.00
66668;BME280;57205;51.438;-2.006;2023-02-28T02:17:34;102693.06;;;-0.73;100.00
66668;BME280;57205;51.438;-2.006;2023-02-28T02:22:50;102687.34;;;-0.68;100.00
66668;BME280;57205;51.438;-2.006;2023-02-28T02:38:20;102695.69;;;-0.82;100.00
66668;BME280;57205;51.438;-2.006;2023-02-28T02:43:19;102700.66;;;-0.89;100.00
66668;BME280;57205;51.438;-2.006;2023-02-28T02:45:49;102709.50;;;-0.90;100.00
66668;BME280;57205;51.438;-2.006;2023-02-28T02:48:18;102704.53;;;-0.93;100.00
66668;BME280;57205;51.438;-2.006;2023-02-28T02:50:51;102706.47;;;-0.95;100.00
66668;BME280;57205;51.438;-2.006;2023-02-28T02:53:18;102704.81;;;-0.96;100.00
66668;BME280;57205;51.438;-2.006;2023-02-28T02:55:47;102709.34;;;-0.98;100.00
66668;BME280;57205;51.438;-2.006;2023-02-28T02:58:18;102700.66;;;-0.98;100.00
66668;BME280;57205;51.438;-2.006;2023-02-28T03:00:46;102704.25;;;-1.00;100.00
66668;BME280;57205;51.438;-2.006;2023-02-28T03:03:12;102694.59;;;-0.99;100.00
66668;BME280;57205;51.438;-2.006;2023-02-28T03:05:41;102696.78;;;-0.94;100.00
66668;BME280;57205;51.438;-2.006;2023-02-28T03:08:09;102709.50;;;-0.90;100.00
66668;BME280;57205;51.438;-2.006;2023-02-28T03:10:36;102699.84;;;-0.89;100.00
66668;BME280;57205;51.438;-2.006;2023-02-28T03:15:48;102710.34;;;-0.89;100.00
66668;BME280;57205;51.438;-2.006;2023-02-28T03:18:27;102703.97;;;-0.87;100.00
66668;BME280;57205;51.438;-2.006;2023-02-28T03:21:03;102713.09;;;-0.81;100.00
66668;BME280;57205;51.438;-2.006;2023-02-28T03:23:53;102698.44;;;-0.74;100.00
66668;BME280;57205;51.438;-2.006;2023-02-28T03:26:23;102697.88;;;-0.68;100.00
66668;BME280;57205;51.438;-2.006;2023-02-28T03:31:43;102703.81;;;-0.57;100.00
66668;BME280;57205;51.438;-2.006;2023-02-28T03:34:10;102700.63;;;-0.51;100.00
66668;BME280;57205;51.438;-2.006;2023-02-28T03:36:38;102697.56;;;-0.46;100.00
66668;BME280;57205;51.438;-2.006;2023-02-28T03:39:10;102701.56;;;-0.42;100.00
66668;BME280;57205;51.438;-2.006;2023-02-28T03:41:45;102698.53;;;-0.38;100.00
66668;BME280;57205;51.438;-2.006;2023-02-28T03:44:16;102708.06;;;-0.37;100.00
66668;BME280;57205;51.438;-2.006;2023-02-28T03:46:52;102694.91;;;-0.37;100.00
66668;BME280;57205;51.438;-2.006;2023-02-28T03:49:21;102702.00;;;-0.37;100.00
66668;BME280;57205;51.438;-2.006;2023-02-28T03:51:47;102702.81;;;-0.37;100.00
66668;BME280;57205;51.438;-2.006;2023-02-28T03:54:33;102702.25;;;-0.40;100.00
66668;BME280;57205;51.438;-2.006;2023-02-28T03:57:04;102702.41;;;-0.42;100.00
66668;BME280;57205;51.438;-2.006;2023-02-28T04:02:23;102693.00;;;-0.44;100.00
66668;BME280;57205;51.438;-2.006;2023-02-28T04:04:49;102688.56;;;-0.44;100.00
66668;BME280;57205;51.438;-2.006;2023-02-28T04:07:15;102680.13;;;-0.47;100.00
66668;BME280;57205;51.438;-2.006;2023-02-28T04:09:41;102681.38;;;-0.51;100.00
66668;BME280;57205;51.438;-2.006;2023-02-28T04:12:06;102684.16;;;-0.53;100.00
66668;BME280;57205;51.438;-2.006;2023-02-28T04:14:31;102696.75;;;-0.56;100.00
66668;BME280;57205;51.438;-2.006;2023-02-28T04:16:56;102691.91;;;-0.61;100.00
66668;BME280;57205;51.438;-2.006;2023-02-28T04:19:22;102690.41;;;-0.63;100.00
66668;BME280;57205;51.438;-2.006;2023-02-28T04:21:48;102702.19;;;-0.67;100.00
66668;BME280;57205;51.438;-2.006;2023-02-28T04:24:15;102699.00;;;-0.71;100.00
66668;BME280;57205;51.438;-2.006;2023-02-28T04:26:42;102699.94;;;-0.72;100.00
66668;BME280;57205;51.438;-2.006;2023-02-28T04:29:09;102698.16;;;-0.71;100.00
66668;BME280;57205;51.438;-2.006;2023-02-28T04:31:34;102698.44;;;-0.74;100.00
66668;BME280;57205;51.438;-2.006;2023-02-28T04:34:00;102706.03;;;-0.71;100.00
66668;BME280;57205;51.438;-2.006;2023-02-28T04:36:25;102706.03;;;-0.71;100.00
66668;BME280;57205;51.438;-2.006;2023-02-28T04:38:51;102699.94;;;-0.72;100.00
66668;BME280;57205;51.438;-2.006;2023-02-28T04:41:16;102707.00;;;-0.72;100.00
66668;BME280;57205;51.438;-2.006;2023-02-28T04:43:42;102702.44;;;-0.70;100.00
66668;BME280;57205;51.438;-2.006;2023-02-28T04:46:07;102709.22;;;-0.68;100.00
66668;BME280;57205;51.438;-2.006;2023-02-28T04:48:34;102703.28;;;-0.70;100.00
66668;BME280;57205;51.438;-2.006;2023-02-28T04:51:10;102700.78;;;-0.71;100.00
66668;BME280;57205;51.438;-2.006;2023-02-28T04:53:36;102700.38;;;-0.76;100.00
66668;BME280;57205;51.438;-2.006;2023-02-28T04:56:02;102706.88;;;-0.80;100.00
66668;BME280;57205;51.438;-2.006;2023-02-28T04:58:27;102700.53;;;-0.87;100.00
66668;BME280;57205;51.438;-2.006;2023-02-28T05:00:53;102708.25;;;-0.95;100.00
66668;BME280;57205;51.438;-2.006;2023-02-28T05:03:19;102710.34;;;-0.99;100.00
66668;BME280;57205;51.438;-2.006;2023-02-28T05:05:46;102717.53;;;-1.01;100.00
66668;BME280;57205;51.438;-2.006;2023-02-28T05:08:11;102713.66;;;-1.07;100.00
66668;BME280;57205;51.438;-2.006;2023-02-28T05:10:36;102724.16;;;-1.07;100.00
66668;BME280;57205;51.438;-2.006;2023-02-28T05:13:01;102725.00;;;-1.06;100.00
66668;BME280;57205;51.438;-2.006;2023-02-28T05:15:26;102723.72;;;-1.02;100.00
66668;BME280;57205;51.438;-2.006;2023-02-28T05:17:52;102720.72;;;-0.98;100.00
66668;BME280;57205;51.438;-2.006;2023-02-28T05:20:17;102717.53;;;-0.91;100.00
66668;BME280;57205;51.438;-2.006;2023-02-28T05:22:42;102720.56;;;-0.86;100.00
66668;BME280;57205;51.438;-2.006;2023-02-28T05:25:12;102725.28;;;-0.80;100.00
66668;BME280;57205;51.438;-2.006;2023-02-28T05:27:38;102733.56;;;-0.75;100.00
66668;BME280;57205;51.438;-2.006;2023-02-28T05:30:04;102727.22;;;-0.73;100.00
66668;BME280;57205;51.438;-2.006;2023-02-28T05:32:31;102723.19;;;-0.67;100.00
66668;BME280;57205;51.438;-2.006;2023-02-28T05:34:56;102725.53;;;-0.64;100.00
66668;BME280;57205;51.438;-2.006;2023-02-28T05:37:21;102718.19;;;-0.61;100.00
66668;BME280;57205;51.438;-2.006;2023-02-28T05:39:47;102721.38;;;-0.57;100.00
66668;BME280;57205;51.438;-2.006;2023-02-28T05:42:13;102720.97;;;-0.53;100.00
66668;BME280;57205;51.438;-2.006;2023-02-28T05:44:38;102721.81;;;-0.52;100.00
66668;BME280;57205;51.438;-2.006;2023-02-28T05:47:03;102730.50;;;-0.52;100.00
66668;BME280;57205;51.438;-2.006;2023-02-28T05:49:28;102737.69;;;-0.54;100.00
66668;BME280;57205;51.438;-2.006;2023-02-28T05:51:54;102734.94;;;-0.52;100.00
66668;BME280;57205;51.438;-2.006;2023-02-28T05:54:19;102742.16;;;-0.54;100.00
66668;BME280;57205;51.438;-2.006;2023-02-28T05:56:44;102736.19;;;-0.56;100.00
66668;BME280;57205;51.438;-2.006;2023-02-28T05:59:11;102736.88;;;-0.54;100.00
66668;BME280;57205;51.438;-2.006;2023-02-28T06:01:37;102747.56;;;-0.56;100.00
66668;BME280;57205;51.438;-2.006;2023-02-28T06:04:04;102751.00;;;-0.55;100.00
66668;BME280;57205;51.438;-2.006;2023-02-28T06:06:29;102739.91;;;-0.59;100.00
66668;BME280;57205;51.438;-2.006;2023-02-28T06:08:55;102741.72;;;-0.59;100.00
66668;BME280;57205;51.438;-2.006;2023-02-28T06:11:21;102738.13;;;-0.58;100.00
66668;BME280;57205;51.438;-2.006;2023-02-28T06:13:46;102736.88;;;-0.54;100.00
66668;BME280;57205;51.438;-2.006;2023-02-28T06:16:11;102736.88;;;-0.54;100.00
66668;BME280;57205;51.438;-2.006;2023-02-28T06:18:37;102727.75;;;-0.60;100.00
66668;BME280;57205;51.438;-2.006;2023-02-28T06:21:02;102729.97;;;-0.65;100.00
66668;BME280;57205;51.438;-2.006;2023-02-28T06:23:27;102731.34;;;-0.70;100.00
66668;BME280;57205;51.438;-2.006;2023-02-28T06:25:53;102737.88;;;-0.74;100.00
66668;BME280;57205;51.438;-2.006;2023-02-28T06:28:18;102738.41;;;-0.80;100.00
66668;BME280;57205;51.438;-2.006;2023-02-28T06:30:44;102737.72;;;-0.82;100.00
66668;BME280;57205;51.438;-2.006;2023-02-28T06:33:09;102738.41;;;-0.80;100.00
66668;BME280;57205;51.438;-2.006;2023-02-28T06:35:35;102744.63;;;-0.81;100.00
66668;BME280;57205;51.438;-2.006;2023-02-28T06:38:00;102746.16;;;-0.79;100.00
66668;BME280;57205;51.438;-2.006;2023-02-28T06:40:25;102740.34;;;-0.73;100.00
66668;BME280;57205;51.438;-2.006;2023-02-28T06:42:51;102737.28;;;-0.68;100.00
66668;BME280;57205;51.438;-2.006;2023-02-28T06:45:17;102744.78;;;-0.64;100.00
66668;BME280;57205;51.438;-2.006;2023-02-28T06:47:42;102733.16;;;-0.61;100.00
66668;BME280;57205;51.438;-2.006;2023-02-28T06:50:11;102737.16;;;-0.57;100.00
66668;BME280;57205;51.438;-2.006;2023-02-28T06:52:36;102734.81;;;-0.51;100.00
66668;BME280;57205;51.438;-2.006;2023-02-28T06:55:03;102734.25;;;-0.45;100.00
66668;BME280;57205;51.438;-2.006;2023-02-28T06:57:29;102742.25;;;-0.37;100.00
66668;BME280;57205;51.438;-2.006;2023-02-28T06:59:58;102747.94;;;-0.32;100.00
66668;BME280;57205;51.438;-2.006;2023-02-28T07:02:24;102742.94;;;-0.25;100.00
66668;BME280;57205;51.438;-2.006;2023-02-28T07:04:51;102743.47;;;-0.22;100.00
66668;BME280;57205;51.438;-2.006;2023-02-28T07:07:16;102749.81;;;-0.15;100.00
66668;BME280;57205;51.438;-2.006;2023-02-28T07:09:41;102752.03;;;-0.10;100.00
66668;BME280;57205;51.438;-2.006;2023-02-28T07:12:07;102750.94;;;-0.08;100.00
66668;BME280;57205;51.438;-2.006;2023-02-28T07:14:32;102755.06;;;-0.05;100.00
66668;BME280;57205;51.438;-2.006;2023-02-28T07:16:57;102754.34;;;0.03;100.00
66668;BME280;57205;51.438;-2.006;2023-02-28T07:19:23;102759.75;;;0.01;100.00
66668;BME280;57205;51.438;-2.006;2023-02-28T07:21:48;102763.78;;;0.05;100.00
66668;BME280;57205;51.438;-2.006;2023-02-28T07:24:14;102755.16;;;0.13;100.00
66668;BME280;57205;51.438;-2.006;2023-02-28T07:26:42;102749.91;;;0.13;100.00
66668;BME280;57205;51.438;-2.006;2023-02-28T07:29:08;102750.69;;;0.13;100.00
66668;BME280;57205;51.438;-2.006;2023-02-28T07:31:33;102751.38;;;0.15;100.00
66668;BME280;57205;51.438;-2.006;2023-02-28T07:33:58;102754.13;;;0.23;100.00
66668;BME280;57205;51.438;-2.006;2023-02-28T07:36:24;102755.38;;;0.29;100.00
66668;BME280;57205;51.438;-2.006;2023-02-28T07:38:49;102741.84;;;0.41;100.00
66668;BME280;57205;51.438;-2.006;2023-02-28T07:41:18;102742.34;;;0.54;100.00
66668;BME280;57205;51.438;-2.006;2023-02-28T07:43:44;102749.78;;;0.68;100.00
66668;BME280;57205;51.438;-2.006;2023-02-28T07:46:11;102751.22;;;0.80;100.00
66668;BME280;57205;51.438;-2.006;2023-02-28T07:48:37;102752.69;;;0.92;100.00
66668;BME280;57205;51.438;-2.006;2023-02-28T07:51:03;102760.66;;;1.00;100.00
66668;BME280;57205;51.438;-2.006;2023-02-28T07:53:28;102759.47;;;1.13;100.00
66668;BME280;57205;51.438;-2.006;2023-02-28T07:55:54;102751.53;;;1.30;100.00
66668;BME280;57205;51.438;-2.006;2023-02-28T07:58:20;102760.53;;;1.37;100.00
66668;BME280;57205;51.438;-2.006;2023-02-28T08:00:45;102757.63;;;1.66;100.00
66668;BME280;57205;51.438;-2.006;2023-02-28T08:03:11;102767.66;;;1.88;100.00
66668;BME280;57205;51.438;-2.006;2023-02-28T08:05:40;102770.97;;;2.16;100.00
66668;BME280;57205;51.438;-2.006;2023-02-28T08:08:05;102774.56;;;2.32;100.00
66668;BME280;57205;51.438;-2.006;2023-02-28T08:10:31;102776.75;;;2.45;100.00
66668;BME280;57205;51.438;-2.006;2023-02-28T08:12:57;102777.94;;;2.58;100.00
66668;BME280;57205;51.438;-2.006;2023-02-28T08:15:22;102780.84;;;2.73;100.00
66668;BME280;57205;51.438;-2.006;2023-02-28T08:17:47;102779.03;;;2.81;100.00
66668;BME280;57205;51.438;-2.006;2023-02-28T08:20:12;102778.91;;;2.91;100.00
66668;BME280;57205;51.438;-2.006;2023-02-28T08:22:38;102785.03;;;2.99;100.00
66668;BME280;57205;51.438;-2.006;2023-02-28T08:25:03;102793.50;;;3.11;100.00
66668;BME280;57205;51.438;-2.006;2023-02-28T08:27:29;102790.38;;;3.16;100.00
66668;BME280;57205;51.438;-2.006;2023-02-28T08:29:54;102785.44;;;3.21;100.00
66668;BME280;57205;51.438;-2.006;2023-02-28T08:32:19;102777.50;;;3.29;100.00
66668;BME280;57205;51.438;-2.006;2023-02-28T08:34:45;102785.13;;;3.40;100.00
66668;BME280;57205;51.438;-2.006;2023-02-28T08:37:10;102778.19;;;3.55;100.00
66668;BME280;57205;51.438;-2.006;2023-02-28T08:39:36;102775.53;;;3.63;100.00
66668;BME280;57205;51.438;-2.006;2023-02-28T08:42:02;102777.84;;;3.74;100.00
66668;BME280;57205;51.438;-2.006;2023-02-28T08:44:28;102786.75;;;3.81;100.00
66668;BME280;57205;51.438;-2.006;2023-02-28T08:46:53;102780.16;;;3.93;100.00
66668;BME280;57205;51.438;-2.006;2023-02-28T08:49:18;102775.50;;;4.03;100.00
66668;BME280;57205;51.438;-2.006;2023-02-28T08:51:44;102789.72;;;4.10;100.00
66668;BME280;57205;51.438;-2.006;2023-02-28T08:54:09;102782.09;;;4.15;100.00
66668;BME280;57205;51.438;-2.006;2023-02-28T08:56:37;102785.22;;;4.27;100.00
66668;BME280;57205;51.438;-2.006;2023-02-28T08:59:02;102782.03;;;4.39;100.00
66668;BME280;57205;51.438;-2.006;2023-02-28T09:01:28;102778.69;;;4.45;100.00
66668;BME280;57205;51.438;-2.006;2023-02-28T09:03:54;102774.34;;;4.52;100.00
66668;BME280;57205;51.438;-2.006;2023-02-28T09:06:21;102779.31;;;4.55;100.00
66668;BME280;57205;51.438;-2.006;2023-02-28T09:08:47;102767.69;;;4.64;100.00
66668;BME280;57205;51.438;-2.006;2023-02-28T09:11:12;102773.63;;;4.66;100.00
66668;BME280;57205;51.438;-2.006;2023-02-28T09:13:38;102773.00;;;4.64;100.00
66668;BME280;57205;51.438;-2.006;2023-02-28T09:16:05;102771.50;;;4.62;100.00
66668;BME280;57205;51.438;-2.006;2023-02-28T09:18:31;102776.16;;;4.60;100.00
66668;BME280;57205;51.438;-2.006;2023-02-28T09:20:56;102771.03;;;4.58;100.00
66668;BME280;57205;51.438;-2.006;2023-02-28T09:23:22;102777.16;;;4.59;100.00
66668;BME280;57205;51.438;-2.006;2023-02-28T09:25:49;102774.63;;;4.65;100.00
66668;BME280;57205;51.438;-2.006;2023-02-28T09:28:14;102766.81;;;4.72;100.00
66668;BME280;57205;51.438;-2.006;2023-02-28T09:30:41;102767.97;;;4.77;100.00
66668;BME280;57205;51.438;-2.006;2023-02-28T09:33:06;102769.13;;;4.75;100.00
66668;BME280;57205;51.438;-2.006;2023-02-28T09:35:31;102767.25;;;4.83;100.00
66668;BME280;57205;51.438;-2.006;2023-02-28T09:37:57;102771.50;;;4.92;100.00
66668;BME280;57205;51.438;-2.006;2023-02-28T09:40:24;102759.72;;;4.95;100.00
66668;BME280;57205;51.438;-2.006;2023-02-28T09:42:51;102760.50;;;5.04;100.00
66668;BME280;57205;51.438;-2.006;2023-02-28T09:45:31;102759.47;;;5.13;100.00
66668;BME280;57205;51.438;-2.006;2023-02-28T09:47:59;102754.63;;;5.16;100.00
66668;BME280;57205;51.438;-2.006;2023-02-28T09:50:33;102759.22;;;5.22;100.00
66668;BME280;57205;51.438;-2.006;2023-02-28T09:52:59;102755.75;;;5.22;100.00
66668;BME280;57205;51.438;-2.006;2023-02-28T09:57:52;102759.59;;;5.42;100.00
66668;BME280;57205;51.438;-2.006;2023-02-28T10:05:35;102748.78;;;5.43;100.00
66668;BME280;57205;51.438;-2.006;2023-02-28T10:10:40;102748.59;;;5.82;100.00
66668;BME280;57205;51.438;-2.006;2023-02-28T10:13:23;102748.94;;;6.02;100.00
66668;BME280;57205;51.438;-2.006;2023-02-28T10:15:51;102750.78;;;6.16;100.00
66668;BME280;57205;51.438;-2.006;2023-02-28T10:18:20;102746.22;;;6.24;100.00
66668;BME280;57205;51.438;-2.006;2023-02-28T10:20:46;102744.28;;;6.18;100.00
66668;BME280;57205;51.438;-2.006;2023-02-28T10:23:30;102747.03;;;6.10;100.00
66668;BME280;57205;51.438;-2.006;2023-02-28T10:25:58;102749.69;;;6.10;100.00
66668;BME280;57205;51.438;-2.006;2023-02-28T10:28:24;102741.16;;;6.00;100.00
66668;BME280;57205;51.438;-2.006;2023-02-28T10:30:51;102736.56;;;6.09;100.00
66668;BME280;57205;51.438;-2.006;2023-02-28T10:33:37;102742.63;;;6.17;100.00
66668;BME280;57205;51.438;-2.006;2023-02-28T10:36:02;102740.25;;;6.22;100.00
66668;BME280;57205;51.438;-2.006;2023-02-28T10:38:32;102735.84;;;6.15;100.00
66668;BME280;57205;51.438;-2.006;2023-02-28T10:41:10;102738.59;;;6.21;100.00
66668;BME280;57205;51.438;-2.006;2023-02-28T10:43:37;102732.53;;;6.27;100.00
66668;BME280;57205;51.438;-2.006;2023-02-28T10:46:04;102742.53;;;6.40;100.00
66668;BME280;57205;51.438;-2.006;2023-02-28T10:51:02;102739.03;;;6.54;100.00
66668;BME280;57205;51.438;-2.006;2023-02-28T10:53:33;102737.38;;;6.53;100.00
66668;BME280;57205;51.438;-2.006;2023-02-28T11:01:23;102735.53;;;6.68;100.00
66668;BME280;57205;51.438;-2.006;2023-02-28T11:03:49;102737.09;;;6.62;100.00
66668;BME280;57205;51.438;-2.006;2023-02-28T11:06:19;102738.84;;;6.55;100.00
66668;BME280;57205;51.438;-2.006;2023-02-28T11:08:47;102735.44;;;6.47;100.00
66668;BME280;57205;51.438;-2.006;2023-02-28T11:11:13;102737.66;;;6.43;100.00
66668;BME280;57205;51.438;-2.006;2023-02-28T11:13:39;102724.56;;;6.42;100.00
66668;BME280;57205;51.438;-2.006;2023-02-28T11:16:05;102726.28;;;6.49;100.00
66668;BME280;57205;51.438;-2.006;2023-02-28T11:18:36;102723.53;;;6.57;100.00
66668;BME280;57205;51.438;-2.006;2023-02-28T11:21:04;102720.88;;;6.57;100.00
66668;BME280;57205;51.438;-2.006;2023-02-28T11:23:30;102716.56;;;6.56;100.00
66668;BME280;57205;51.438;-2.006;2023-02-28T11:25:58;102722.59;;;6.65;100.00
66668;BME280;57205;51.438;-2.006;2023-02-28T11:36:11;102710.66;;;6.75;100.00
66668;BME280;57205;51.438;-2.006;2023-02-28T11:38:37;102706.00;;;6.63;100.00
66668;BME280;57205;51.438;-2.006;2023-02-28T11:51:35;102693.41;;;6.71;100.00
66668;BME280;57205;51.438;-2.006;2023-02-28T11:56:39;102698.44;;;6.81;100.00
66668;BME280;57205;51.438;-2.006;2023-02-28T11:59:20;102691.81;;;6.77;100.00
66668;BME280;57205;51.438;-2.006;2023-02-28T12:02:06;102691.19;;;6.75;100.00
66668;BME280;57205;51.438;-2.006;2023-02-28T12:25:37;102655.66;;;7.04;100.00
66668;BME280;57205;51.438;-2.006;2023-02-28T12:28:07;102669.34;;;7.01;100.00
66668;BME280;57205;51.438;-2.006;2023-02-28T12:30:35;102670.06;;;7.09;100.00
66668;BME280;57205;51.438;-2.006;2023-02-28T12:33:05;102651.22;;;7.11;100.00
66668;BME280;57205;51.438;-2.006;2023-02-28T12:35:33;102644.06;;;7.11;100.00
66668;BME280;57205;51.438;-2.006;2023-02-28T12:41:00;102646.66;;;7.05;100.00
66668;BME280;57205;51.438;-2.006;2023-02-28T12:43:27;102635.69;;;7.14;100.00
66668;BME280;57205;51.438;-2.006;2023-02-28T12:45:56;102638.22;;;7.22;100.00
66668;BME280;57205;51.438;-2.006;2023-02-28T12:48:28;102640.34;;;7.33;100.00
66668;BME280;57205;51.438;-2.006;2023-02-28T12:50:54;102639.97;;;7.36;100.00
66668;BME280;57205;51.438;-2.006;2023-02-28T12:53:25;102631.13;;;7.36;100.00
66668;BME280;57205;51.438;-2.006;2023-02-28T12:55:59;102618.00;;;7.28;100.00
66668;BME280;57205;51.438;-2.006;2023-02-28T13:01:27;102621.41;;;7.22;100.00
66668;BME280;57205;51.438;-2.006;2023-02-28T13:09:09;102613.47;;;7.56;100.00
66668;BME280;57205;51.438;-2.006;2023-02-28T13:14:05;102600.16;;;7.56;100.00
66668;BME280;57205;51.438;-2.006;2023-02-28T13:19:16;102606.19;;;7.43;100.00
66668;BME280;57205;51.438;-2.006;2023-02-28T13:21:43;102602.31;;;7.39;100.00
66668;BME280;57205;51.438;-2.006;2023-02-28T13:24:09;102595.13;;;7.40;100.00
66668;BME280;57205;51.438;-2.006;2023-02-28T13:32:18;102581.88;;;7.53;100.00
66668;BME280;57205;51.438;-2.006;2023-02-28T13:34:20;102571.63;;;7.50;100.00
66668;BME280;57205;51.438;-2.006;2023-02-28T13:36:46;102567.13;;;7.50;100.00
66668;BME280;57205;51.438;-2.006;2023-02-28T13:41:55;102561.28;;;7.68;100.00
66668;BME280;57205;51.438;-2.006;2023-02-28T13:44:21;102555.81;;;7.82;100.00
66668;BME280;57205;51.438;-2.006;2023-02-28T14:04:58;102543.94;;;7.85;99.33
66668;BME280;57205;51.438;-2.006;2023-02-28T14:07:26;102532.28;;;7.93;100.00
66668;BME280;57205;51.438;-2.006;2023-02-28T14:10:01;102525.78;;;8.08;99.98
66668;BME280;57205;51.438;-2.006;2023-02-28T14:17:58;102516.53;;;8.04;100.00
66668;BME280;57205;51.438;-2.006;2023-02-28T14:20:26;102510.16;;;7.99;100.00
66668;BME280;57205;51.438;-2.006;2023-02-28T14:22:54;102518.16;;;7.99;100.00
66668;BME280;57205;51.438;-2.006;2023-02-28T14:25:33;102507.25;;;7.93;100.00
66668;BME280;57205;51.438;-2.006;2023-02-28T14:30:48;102483.69;;;7.97;100.00
66668;BME280;57205;51.438;-2.006;2023-02-28T14:38:29;102475.53;;;8.12;100.00
66668;BME280;57205;51.438;-2.006;2023-02-28T14:40:56;102483.31;;;8.07;100.00
66668;BME280;57205;51.438;-2.006;2023-02-28T14:43:26;102479.22;;;8.04;99.63
66668;BME280;57205;51.438;-2.006;2023-02-28T14:45:53;102472.84;;;7.99;100.00
66668;BME280;57205;51.438;-2.006;2023-02-28T14:48:19;102454.59;;;8.02;100.00
66668;BME280;57205;51.438;-2.006;2023-02-28T14:50:50;102447.22;;;8.04;100.00
66668;BME280;57205;51.438;-2.006;2023-02-28T14:53:17;102459.31;;;8.07;100.00
66668;BME280;57205;51.438;-2.006;2023-02-28T14:55:44;102455.66;;;8.08;100.00
66668;BME280;57205;51.438;-2.006;2023-02-28T14:58:19;102449.72;;;8.19;100.00
66668;BME280;57205;51.438;-2.006;2023-02-28T15:00:47;102446.41;;;8.17;100.00
66668;BME280;57205;51.438;-2.006;2023-02-28T15:03:35;102456.66;;;8.07;100.00
66668;BME280;57205;51.438;-2.006;2023-02-28T15:05:59;102446.59;;;8.09;100.00